Time;durP1;ratioP1;P1;durP2;ratioP2;P2;SDS_P1;SDS_P2;PMS_P1;PMS_P2;Temp;Humidity;BMP_temperature;BMP_pressure;BME280_temperature;BME280_humidity;BME280_pressure;Samples;Min_cycle;Max_cycle;Signal;HPM_P1;HPM_P2
2021/05/08 00:00:23;;;;;;;7.90;5.15;;;;;;;21.38;49.75;98979.47;5029642;28;20327;-50
2021/05/08 00:02:49;;;;;;;10.25;5.57;;;;;;;21.28;49.91;98979.63;5029618;28;20033;-52
2021/05/08 00:05:14;;;;;;;6.75;5.25;;;;;;;21.25;49.73;98983.72;5029411;28;20397;-51
2021/05/08 00:07:40;;;;;;;8.82;5.70;;;;;;;21.15;50.70;98980.34;5028209;28;20025;-50
2021/05/08 00:10:18;;;;;;;9.75;5.60;;;;;;;20.83;51.17;98984.56;5029459;28;20433;-50
2021/05/08 00:12:44;;;;;;;13.00;5.78;;;;;;;20.75;51.20;98993.28;5029274;28;20569;-50
2021/05/08 00:15:10;;;;;;;8.05;5.80;;;;;;;20.79;51.13;98995.16;5029298;28;20032;-51
2021/05/08 00:17:36;;;;;;;9.77;5.63;;;;;;;20.49;51.86;98980.84;5028035;28;20033;-49
2021/05/08 00:20:10;;;;;;;9.63;5.40;;;;;;;20.58;51.61;98997.25;5029705;28;20091;-52
2021/05/08 00:22:37;;;;;;;9.77;5.47;;;;;;;20.43;52.04;98994.72;5029618;28;20025;-52
2021/05/08 00:25:04;;;;;;;9.85;5.85;;;;;;;20.60;51.60;98994.28;5029319;28;20409;-51
2021/05/08 00:27:29;;;;;;;11.70;5.80;;;;;;;20.66;51.40;98999.34;5029168;28;20032;-51
2021/05/08 00:29:55;;;;;;;9.75;5.47;;;;;;;20.63;51.52;98986.41;5029132;28;20029;-50
2021/05/08 00:32:20;;;;;;;8.45;5.70;;;;;;;20.78;51.15;98988.13;5029563;28;20029;-50
2021/05/08 00:34:46;;;;;;;10.75;6.00;;;;;;;20.62;51.69;98986.69;5029242;28;20457;-51
2021/05/08 00:37:11;;;;;;;9.50;6.05;;;;;;;20.54;51.59;98979.97;5029071;28;20056;-50
2021/05/08 00:39:36;;;;;;;8.18;5.90;;;;;;;20.49;51.74;98974.66;5028769;28;20141;-50
2021/05/08 00:42:02;;;;;;;8.32;5.82;;;;;;;20.53;51.41;98974.88;5029007;28;20056;-49
2021/05/08 00:44:27;;;;;;;9.15;5.50;;;;;;;20.40;51.59;98971.78;5028993;28;20025;-51
2021/05/08 00:46:53;;;;;;;11.23;5.57;;;;;;;20.40;51.28;98982.56;5028738;28;20056;-52
2021/05/08 00:49:20;;;;;;;8.73;5.32;;;;;;;20.47;50.85;98987.66;5011606;28;20033;-52
2021/05/08 00:51:46;;;;;;;9.50;5.13;;;;;;;20.44;51.21;98989.00;5032967;28;20115;-51
2021/05/08 00:54:11;;;;;;;9.25;5.50;;;;;;;20.28;51.38;98990.28;5033169;28;20024;-50
2021/05/08 00:56:37;;;;;;;8.88;5.30;;;;;;;20.25;51.48;98994.34;5033037;28;20421;-49
2021/05/08 00:59:02;;;;;;;7.63;5.47;;;;;;;20.30;51.52;98986.19;5033310;28;20022;-52
2021/05/08 01:01:28;;;;;;;8.90;5.40;;;;;;;20.28;51.42;98988.38;5033698;28;20029;-52
2021/05/08 01:03:53;;;;;;;10.13;5.60;;;;;;;20.37;51.21;98983.16;5034278;28;20033;-52
2021/05/08 01:06:19;;;;;;;7.97;5.57;;;;;;;20.35;50.81;98984.53;5033709;28;20474;-51
2021/05/08 01:08:44;;;;;;;8.07;5.53;;;;;;;20.29;51.40;98989.16;5033575;28;20056;-53
2021/05/08 01:11:10;;;;;;;10.68;5.70;;;;;;;20.04;51.85;98982.94;5033532;28;20033;-50
2021/05/08 01:13:36;;;;;;;7.22;5.53;;;;;;;19.90;52.30;98985.50;5032033;28;20053;-52
2021/05/08 01:16:02;;;;;;;9.50;5.63;;;;;;;20.03;52.03;98991.31;5016056;28;20138;-52
2021/05/08 01:18:29;;;;;;;8.68;5.35;;;;;;;20.15;51.65;98997.16;5033547;28;20470;-53
2021/05/08 01:20:55;;;;;;;11.48;5.43;;;;;;;20.15;51.97;98997.16;5032099;28;20022;-52
2021/05/08 01:23:20;;;;;;;9.07;5.90;;;;;;;20.20;51.44;98988.19;5015455;28;20167;-52
2021/05/08 01:25:46;;;;;;;9.88;5.72;;;;;;;20.13;51.50;98976.94;5033195;28;20496;-52
2021/05/08 01:28:11;;;;;;;12.82;5.70;;;;;;;19.86;51.91;98984.44;5033174;28;20146;-54
2021/05/08 01:30:37;;;;;;;9.02;5.68;;;;;;;19.10;53.65;98978.47;5033162;28;20374;-52
2021/05/08 01:33:06;;;;;;;7.63;5.70;;;;;;;19.12;54.02;98980.88;5032909;28;20060;-53
2021/05/08 01:35:32;;;;;;;13.75;6.97;;;;;;;19.00;53.96;98975.84;5033214;28;20021;-50
2021/05/08 01:37:58;;;;;;;8.73;5.45;;;;;;;19.02;54.00;98980.91;5032282;28;20500;-53
2021/05/08 01:40:27;;;;;;;10.55;5.35;;;;;;;19.01;53.86;98980.13;5033261;28;20017;-52
2021/05/08 01:42:53;;;;;;;9.07;5.85;;;;;;;19.14;53.54;98981.41;5032927;28;20466;-52
2021/05/08 01:45:20;;;;;;;7.55;5.10;;;;;;;19.21;52.88;98984.63;5033458;28;20038;-51
2021/05/08 01:47:45;;;;;;;7.03;5.03;;;;;;;18.97;53.67;98984.47;5033195;28;20030;-50
2021/05/08 01:50:13;;;;;;;9.32;5.25;;;;;;;18.99;53.07;98990.38;5032822;28;20113;-48
2021/05/08 01:52:39;;;;;;;8.60;4.82;;;;;;;18.94;53.19;98993.94;5033106;28;20022;-49
2021/05/08 01:55:16;;;;;;;9.65;4.85;;;;;;;19.17;52.54;99007.00;5033035;28;20095;-50
2021/05/08 01:57:45;;;;;;;7.45;5.00;;;;;;;19.39;51.80;99002.03;5033203;28;20025;-49
2021/05/08 02:00:16;;;;;;;9.20;5.00;;;;;;;19.49;51.94;99004.66;5033568;28;20063;-50
2021/05/08 02:02:42;;;;;;;7.28;4.35;;;;;;;19.32;51.78;99001.53;5030884;28;20053;-51
2021/05/08 02:05:08;;;;;;;11.50;4.70;;;;;;;19.21;51.97;99005.38;5032915;28;20458;-50
2021/05/08 02:07:34;;;;;;;7.35;4.60;;;;;;;19.05;52.12;99008.13;5032775;28;20017;-52
2021/05/08 02:09:59;;;;;;;8.15;4.20;;;;;;;19.09;51.82;99009.19;5032608;28;20100;-49
2021/05/08 02:12:30;;;;;;;5.72;4.13;;;;;;;19.27;51.36;99009.66;5032373;28;20552;-53
2021/05/08 02:14:56;;;;;;;7.95;4.60;;;;;;;19.40;51.16;99019.84;5032827;28;20393;-51
2021/05/08 02:17:21;;;;;;;7.68;4.60;;;;;;;19.45;51.25;99019.78;5032665;28;20472;-51
2021/05/08 02:19:46;;;;;;;6.18;4.50;;;;;;;19.63;50.66;99025.59;5032568;28;20185;-49
2021/05/08 02:22:12;;;;;;;9.85;4.50;;;;;;;19.76;50.28;99025.00;5032671;28;20041;-52
2021/05/08 02:24:37;;;;;;;8.10;4.63;;;;;;;19.75;50.03;99028.00;5032567;28;20021;-51
2021/05/08 02:27:03;;;;;;;8.52;4.45;;;;;;;19.41;50.66;99026.84;5032400;28;20112;-50
2021/05/08 02:29:29;;;;;;;9.07;4.15;;;;;;;19.20;50.67;99026.13;5032512;28;20029;-50
2021/05/08 02:31:54;;;;;;;8.00;4.43;;;;;;;19.06;50.53;99027.84;5032327;28;20029;-51
2021/05/08 02:34:20;;;;;;;6.45;3.97;;;;;;;19.07;50.60;99032.13;5032253;28;20025;-49
2021/05/08 02:36:45;;;;;;;9.55;4.20;;;;;;;19.32;50.00;99041.97;5031887;28;20017;-52
2021/05/08 02:39:11;;;;;;;8.05;3.92;;;;;;;19.19;50.35;99048.00;5032166;28;20413;-50
2021/05/08 02:41:36;;;;;;;8.60;3.83;;;;;;;18.64;51.56;99034.41;5032077;28;20021;-52
2021/05/08 02:44:02;;;;;;;8.65;3.75;;;;;;;18.87;51.04;99036.53;5032171;28;20037;-50
2021/05/08 02:46:27;;;;;;;10.63;3.55;;;;;;;18.48;50.94;99041.72;5030728;28;20115;-52
2021/05/08 02:48:53;;;;;;;8.80;3.60;;;;;;;18.63;50.12;99043.59;5031988;28;20021;-52
2021/05/08 02:51:18;;;;;;;6.28;3.28;;;;;;;18.61;49.76;99054.63;5031902;28;20025;-51
2021/05/08 02:53:43;;;;;;;5.40;3.05;;;;;;;18.69;49.11;99051.38;5031955;28;20021;-51
2021/05/08 02:56:09;;;;;;;6.80;3.10;;;;;;;18.88;48.31;99062.41;5031761;28;20465;-49
2021/05/08 02:58:34;;;;;;;4.65;3.15;;;;;;;19.13;47.62;99061.50;5031322;28;20373;-52
2021/05/08 03:01:00;;;;;;;8.45;3.40;;;;;;;19.31;47.14;99059.28;5032114;28;20017;-51
2021/05/08 03:03:25;;;;;;;6.65;3.30;;;;;;;19.01;48.05;99068.31;5031671;28;20503;-51
2021/05/08 03:05:51;;;;;;;6.25;3.38;;;;;;;18.92;49.12;99073.44;5031477;28;20440;-50
2021/05/08 03:08:16;;;;;;;6.60;3.63;;;;;;;18.58;49.92;99094.78;5030618;28;20022;-48
2021/05/08 03:10:42;;;;;;;7.68;3.72;;;;;;;18.69;50.01;99099.06;5031262;28;20477;-51
2021/05/08 03:13:07;;;;;;;5.53;3.55;;;;;;;18.43;51.37;99106.38;5030462;28;20042;-50
2021/05/08 03:15:33;;;;;;;5.72;3.60;;;;;;;18.26;51.17;99112.03;5031362;28;20029;-52
2021/05/08 03:17:58;;;;;;;5.82;3.42;;;;;;;18.24;51.38;99124.97;5031574;28;20096;-49
2021/05/08 03:20:24;;;;;;;9.30;3.80;;;;;;;17.94;52.21;99134.63;5031025;28;20040;-50
2021/05/08 03:22:49;;;;;;;5.97;3.65;;;;;;;18.14;51.96;99133.84;5031016;28;20079;-51
2021/05/08 03:25:15;;;;;;;7.53;3.95;;;;;;;17.91;52.50;99144.03;5030985;28;20548;-52
2021/05/08 03:27:41;;;;;;;8.75;4.15;;;;;;;18.08;51.90;99153.78;5031116;28;20096;-50
2021/05/08 03:30:07;;;;;;;8.73;4.10;;;;;;;17.74;52.51;99146.13;5030826;28;20140;-49
2021/05/08 03:32:32;;;;;;;7.53;4.10;;;;;;;17.61;52.70;99160.91;5030573;28;20123;-50
2021/05/08 03:34:58;;;;;;;6.35;3.85;;;;;;;17.96;51.43;99157.50;5030770;28;20135;-53
2021/05/08 03:37:23;;;;;;;8.50;3.33;;;;;;;17.86;50.93;99160.19;5030441;28;20441;-49
2021/05/08 03:39:49;;;;;;;12.43;3.15;;;;;;;17.89;50.31;99166.91;5030317;28;20171;-53
2021/05/08 03:42:14;;;;;;;8.88;2.97;;;;;;;18.03;48.68;99168.03;5030552;28;20022;-52
2021/05/08 03:44:40;;;;;;;7.75;2.92;;;;;;;18.14;48.38;99174.22;5030360;28;20032;-53
2021/05/08 03:47:05;;;;;;;6.15;2.90;;;;;;;18.48;47.82;99176.41;5030542;28;20041;-52
2021/05/08 03:49:31;;;;;;;7.75;2.97;;;;;;;18.42;47.70;99199.84;5030665;28;20021;-51
2021/05/08 03:52:02;;;;;;;8.65;3.35;;;;;;;18.40;47.97;99203.91;5030600;28;20468;-52
2021/05/08 03:54:27;;;;;;;21.08;3.35;;;;;;;18.44;47.71;99213.84;5030580;28;20025;-50
2021/05/08 03:56:53;;;;;;;9.23;3.25;;;;;;;18.41;48.04;99238.66;5030516;28;20096;-51
2021/05/08 03:59:18;;;;;;;6.05;3.40;;;;;;;18.41;47.71;99241.34;5028920;28;20025;-48
2021/05/08 04:01:44;;;;;;;10.07;3.58;;;;;;;18.29;47.78;99238.88;5030220;28;20032;-52
2021/05/08 04:04:09;;;;;;;11.68;3.95;;;;;;;18.64;47.49;99249.97;5030157;28;20029;-52
2021/05/08 04:06:34;;;;;;;14.10;4.00;;;;;;;18.56;47.48;99256.69;5023103;28;20423;-52
2021/05/08 04:09:00;;;;;;;23.58;4.47;;;;;;;18.35;48.98;99259.38;5017015;28;20026;-49
2021/05/08 04:11:25;;;;;;;14.95;4.60;;;;;;;18.33;48.73;99271.47;5010357;28;20034;-52
2021/05/08 04:13:51;;;;;;;10.43;5.28;;;;;;;18.08;49.34;99289.19;5010095;28;20067;-53
2021/05/08 04:16:16;;;;;;;11.77;5.60;;;;;;;18.32;48.78;99289.53;5010484;28;20025;-52
2021/05/08 04:18:42;;;;;;;13.15;5.90;;;;;;;18.34;49.00;99313.53;5010275;28;20021;-51
2021/05/08 04:21:07;;;;;;;12.93;6.00;;;;;;;18.03;49.35;99296.44;5010641;28;20030;-52
2021/05/08 04:23:33;;;;;;;27.90;6.80;;;;;;;18.05;49.51;99305.88;5009861;28;20026;-50
2021/05/08 04:25:58;;;;;;;40.40;11.73;;;;;;;18.22;49.33;99311.06;5008948;28;20030;-51
2021/05/08 04:28:24;;;;;;;15.40;6.47;;;;;;;18.25;48.86;99318.59;5009653;28;20382;-52
2021/05/08 04:30:49;;;;;;;50.65;22.52;;;;;;;18.39;48.99;99320.78;5009671;28;20030;-52
2021/05/08 04:33:15;;;;;;;17.63;8.88;;;;;;;18.44;49.20;99318.91;5009193;28;20092;-53
2021/05/08 04:35:40;;;;;;;10.48;6.30;;;;;;;18.51;48.16;99326.78;5028564;28;20041;-52
2021/05/08 04:38:06;;;;;;;16.52;6.25;;;;;;;18.35;48.86;99324.03;5028798;28;20091;-51
2021/05/08 04:40:31;;;;;;;12.00;5.88;;;;;;;18.39;48.13;99326.19;5028857;28;20033;-50
2021/05/08 04:42:57;;;;;;;16.67;5.75;;;;;;;18.32;48.32;99329.94;5029093;28;20405;-50
2021/05/08 04:45:25;;;;;;;17.67;6.18;;;;;;;18.49;47.67;99329.72;5028781;28;20032;-51
2021/05/08 04:47:53;;;;;;;24.83;6.30;;;;;;;18.42;47.76;99325.66;5029083;28;20021;-49
2021/05/08 04:50:18;;;;;;;14.60;5.68;;;;;;;18.04;48.22;99292.69;5028845;28;20053;-52
2021/05/08 04:52:43;;;;;;;10.75;5.70;;;;;;;18.22;48.09;99339.84;5028753;28;20041;-51
2021/05/08 04:55:09;;;;;;;10.88;6.13;;;;;;;18.37;47.96;99331.81;5027822;28;20064;-49
2021/05/08 04:57:35;;;;;;;16.38;5.90;;;;;;;18.28;48.27;99357.69;5029208;28;20055;-52
2021/05/08 05:00:00;;;;;;;12.52;6.50;;;;;;;18.44;48.21;99358.53;5029453;28;20017;-51
2021/05/08 05:02:26;;;;;;;14.07;6.47;;;;;;;18.36;48.06;99360.66;5029070;28;20033;-52
2021/05/08 05:04:51;;;;;;;19.33;5.97;;;;;;;18.54;47.26;99374.72;5029593;28;20468;-53
2021/05/08 05:07:17;;;;;;;11.57;5.78;;;;;;;18.34;48.32;99378.16;5029045;28;20017;-52
2021/05/08 05:09:42;;;;;;;12.52;5.88;;;;;;;18.41;47.76;99365.25;5027691;28;20029;-52
2021/05/08 05:12:08;;;;;;;9.13;5.45;;;;;;;18.56;47.66;99369.88;5028497;28;20029;-52
2021/05/08 05:14:33;;;;;;;10.77;5.80;;;;;;;18.42;47.55;99364.19;5029195;28;20025;-50
2021/05/08 05:16:59;;;;;;;13.65;5.75;;;;;;;18.28;47.69;99344.22;5029189;28;20338;-50
2021/05/08 05:19:24;;;;;;;30.10;16.80;;;;;;;18.45;47.87;99368.22;5029032;28;20395;-51
2021/05/08 05:21:50;;;;;;;20.55;12.65;;;;;;;18.83;46.86;99387.75;5028765;28;20021;-52
2021/05/08 05:24:15;;;;;;;14.18;6.30;;;;;;;18.96;46.55;99395.31;5028891;28;20032;-52
2021/05/08 05:26:41;;;;;;;9.93;5.35;;;;;;;18.61;47.20;99410.31;5028787;28;20049;-51
2021/05/08 05:29:09;;;;;;;12.88;5.32;;;;;;;18.57;47.30;99406.53;5029153;28;20026;-53
2021/05/08 05:31:35;;;;;;;17.45;5.85;;;;;;;18.36;47.17;99395.66;5021486;28;20426;-51
2021/05/08 05:34:01;;;;;;;12.07;5.32;;;;;;;18.26;47.31;99411.78;5017263;28;20212;-50
2021/05/08 05:36:27;;;;;;;9.10;5.05;;;;;;;18.40;47.28;99419.41;5030120;28;20037;-50
2021/05/08 05:38:52;;;;;;;8.00;5.15;;;;;;;18.65;46.37;99440.25;5032828;28;20489;-53
2021/05/08 05:41:18;;;;;;;9.82;5.75;;;;;;;18.85;46.64;99423.34;5032477;28;20036;-50
2021/05/08 05:43:43;;;;;;;8.77;5.60;;;;;;;18.78;45.84;99445.13;5032669;28;20386;-53
2021/05/08 05:46:09;;;;;;;14.00;5.18;;;;;;;18.92;46.09;99446.31;5032168;28;20021;-52
2021/05/08 05:48:34;;;;;;;8.43;5.32;;;;;;;18.99;45.98;99448.72;5032486;28;20021;-51
2021/05/08 05:51:00;;;;;;;7.72;5.40;;;;;;;18.85;46.14;99453.00;5031977;28;20053;-52
2021/05/08 05:53:25;;;;;;;12.32;5.10;;;;;;;19.13;45.46;99452.56;5028615;28;20026;-51
2021/05/08 05:55:51;;;;;;;8.27;5.07;;;;;;;18.83;46.11;99455.13;5031930;28;20147;-52
2021/05/08 05:58:16;;;;;;;11.50;5.22;;;;;;;19.24;45.07;99450.66;5031725;28;20036;-53
2021/05/08 06:00:41;;;;;;;15.13;4.78;;;;;;;19.51;44.50;99469.31;5032354;28;20087;-52
2021/05/08 06:03:07;;;;;;;11.18;4.68;;;;;;;19.54;43.61;99427.47;5031494;28;20010;-52
2021/05/08 06:05:32;;;;;;;12.27;4.72;;;;;;;20.04;42.96;99433.91;5031803;28;20020;-53
2021/05/08 06:07:58;;;;;;;10.20;4.40;;;;;;;19.63;43.52;99457.41;5032053;28;20036;-53
2021/05/08 06:10:23;;;;;;;13.13;4.78;;;;;;;19.90;43.04;99466.09;5031869;28;20025;-53
2021/05/08 06:12:49;;;;;;;9.98;5.43;;;;;;;20.48;45.45;99459.47;5031851;28;20049;-49
2021/05/08 06:15:14;;;;;;;12.93;4.47;;;;;;;20.14;42.58;99473.59;5031759;28;20481;-52
2021/05/08 06:17:40;;;;;;;9.70;4.18;;;;;;;19.87;43.03;99466.63;5025526;28;20095;-52
2021/05/08 06:20:06;;;;;;;7.93;3.95;;;;;;;19.69;43.59;99470.66;5031582;28;20040;-51
2021/05/08 06:22:32;;;;;;;13.73;4.03;;;;;;;20.04;43.01;99476.34;5024752;28;20454;-52
2021/05/08 06:24:57;;;;;;;6.72;3.70;;;;;;;20.03;43.47;99480.94;5011258;28;20081;-51
2021/05/08 06:27:23;;;;;;;10.93;4.00;;;;;;;19.79;42.75;99472.56;5012015;28;20037;-52
2021/05/08 06:29:50;;;;;;;6.80;3.83;;;;;;;19.75;43.17;99495.00;5011477;28;20462;-50
2021/05/08 06:32:15;;;;;;;12.60;3.80;;;;;;;19.86;43.19;99497.41;5011636;28;20118;-50
2021/05/08 06:34:40;;;;;;;11.93;3.80;;;;;;;19.87;42.80;99496.31;5011336;28;20065;-53
2021/05/08 06:37:06;;;;;;;14.45;4.00;;;;;;;20.08;42.16;99493.59;5011385;28;20353;-49
2021/05/08 06:39:31;;;;;;;19.48;4.03;;;;;;;19.92;41.77;99485.53;5011186;28;20029;-50
2021/05/08 06:41:57;;;;;;;5.68;3.40;;;;;;;19.89;41.54;99472.56;5030273;28;20036;-39
2021/05/08 06:44:25;;;;;;;12.20;3.45;;;;;;;19.83;42.29;99476.34;5031225;28;20022;-38
2021/05/08 06:46:53;;;;;;;10.70;4.03;;;;;;;20.19;41.90;99476.31;5030484;28;20531;-38
2021/05/08 06:49:19;;;;;;;8.63;3.50;;;;;;;20.45;41.34;99487.88;5030367;28;20065;-38
2021/05/08 06:51:44;;;;;;;7.55;3.40;;;;;;;21.03;40.20;99475.75;5030911;28;20683;-38
2021/05/08 06:54:10;;;;;;;6.03;3.00;;;;;;;20.40;40.68;99463.53;5029591;28;20147;-39
2021/05/08 06:56:35;;;;;;;11.07;3.70;;;;;;;20.25;40.73;99487.91;5030812;28;20687;-38
2021/05/08 06:59:01;;;;;;;7.50;3.17;;;;;;;20.40;40.51;99485.16;5030807;28;20052;-36
2021/05/08 07:01:26;;;;;;;6.80;3.17;;;;;;;20.56;40.42;99493.22;5030499;28;20034;-39
2021/05/08 07:03:52;;;;;;;6.05;3.13;;;;;;;20.52;40.35;99490.25;5030212;28;20052;-38
2021/05/08 07:06:17;;;;;;;7.43;3.47;;;;;;;20.63;40.17;99486.47;5030225;28;20029;-38
2021/05/08 07:08:43;;;;;;;5.32;2.90;;;;;;;20.44;40.76;99494.34;5026661;28;20040;-37
2021/05/08 07:11:08;;;;;;;7.63;3.35;;;;;;;20.47;40.24;99474.09;5030215;28;20048;-38
2021/05/08 07:13:33;;;;;;;6.78;3.03;;;;;;;20.12;40.71;99470.38;5030026;28;20049;-38
2021/05/08 07:15:59;;;;;;;8.50;2.95;;;;;;;19.99;40.99;99474.47;5030444;28;20044;-38
2021/05/08 07:18:24;;;;;;;23.40;13.27;;;;;;;20.26;41.00;99476.03;5030290;28;20021;-38
2021/05/08 07:20:50;;;;;;;18.35;8.57;;;;;;;19.90;41.43;99478.78;5030283;28;20025;-38
2021/05/08 07:23:16;;;;;;;5.38;3.60;;;;;;;19.58;42.12;99487.13;5030436;28;20032;-40
2021/05/08 07:25:41;;;;;;;11.77;3.50;;;;;;;19.85;41.81;99486.88;5029747;28;20037;-38
2021/05/08 07:28:11;;;;;;;8.70;3.40;;;;;;;20.20;41.23;99469.00;5027966;28;20100;-49
2021/05/08 07:30:37;;;;;;;7.57;3.03;;;;;;;20.33;41.18;99481.94;5028982;28;20045;-50
2021/05/08 07:33:03;;;;;;;12.75;3.20;;;;;;;20.17;41.79;99485.78;5028706;28;20041;-50
2021/05/08 07:35:28;;;;;;;8.88;3.33;;;;;;;20.24;41.42;99483.59;5029405;28;20033;-38
2021/05/08 07:37:54;;;;;;;11.23;3.40;;;;;;;20.23;41.45;99479.28;5028468;28;20085;-39
2021/05/08 07:40:19;;;;;;;7.10;3.25;;;;;;;20.08;41.36;99488.22;5029569;28;20025;-38
2021/05/08 07:42:45;;;;;;;18.73;4.10;;;;;;;19.80;42.40;99495.81;5029222;28;20033;-38
2021/05/08 07:45:11;;;;;;;36.65;5.45;;;;;;;19.80;41.67;99508.47;5028575;28;20029;-38
2021/05/08 07:47:37;;;;;;;13.30;3.70;;;;;;;20.07;41.20;99502.81;5029473;28;20113;-38
2021/05/08 07:50:03;;;;;;;28.60;4.63;;;;;;;20.37;40.69;99507.34;5029527;28;20461;-38
2021/05/08 07:52:28;;;;;;;16.88;4.35;;;;;;;21.21;39.97;99515.69;5029835;28;20025;-38
2021/05/08 07:54:54;;;;;;;10.85;3.50;;;;;;;21.82;38.97;99519.91;5029396;28;20036;-39
2021/05/08 07:57:19;;;;;;;15.55;3.60;;;;;;;21.96;39.03;99517.34;5030040;28;20128;-38
2021/05/08 07:59:45;;;;;;;16.90;3.92;;;;;;;22.29;38.40;99522.22;5029657;28;20409;-37
2021/05/08 08:02:11;;;;;;;9.13;3.33;;;;;;;22.03;38.54;99533.28;5029598;28;20123;-39
2021/05/08 08:04:36;;;;;;;22.08;3.80;;;;;;;21.78;39.23;99543.22;5029479;28;20026;-38
2021/05/08 08:07:02;;;;;;;17.88;4.60;;;;;;;21.56;38.56;99549.06;5028876;28;20021;-39
2021/05/08 08:09:27;;;;;;;10.43;3.58;;;;;;;22.06;38.28;99557.88;5029916;28;20440;-39
2021/05/08 08:11:52;;;;;;;4.95;3.60;;;;;;;22.40;37.35;99562.50;5029239;28;20021;-39
2021/05/08 08:14:19;;;;;;;9.10;3.30;;;;;;;21.86;38.49;99550.75;5029619;28;20052;-38
2021/05/08 08:16:45;;;;;;;3.85;3.38;;;;;;;22.78;37.10;99548.25;5029827;28;20482;-39
2021/05/08 08:19:10;;;;;;;14.70;4.50;;;;;;;22.79;36.68;99566.13;5029618;28;20102;-38
2021/05/08 08:21:36;;;;;;;45.45;28.63;;;;;;;22.71;37.19;99572.22;5029540;28;20521;-38
2021/05/08 08:24:01;;;;;;;7.68;4.07;;;;;;;22.27;37.99;99555.03;5029452;28;20131;-38
2021/05/08 08:26:27;;;;;;;8.70;3.72;;;;;;;22.36;37.67;99561.44;5035647;28;20035;-37
2021/05/08 08:28:52;;;;;;;6.40;3.78;;;;;;;21.91;38.78;99563.44;5029376;28;20025;-38
2021/05/08 08:31:18;;;;;;;6.57;4.00;;;;;;;22.16;38.45;99562.44;5029366;28;20033;-38
2021/05/08 08:33:43;;;;;;;10.43;3.90;;;;;;;22.14;38.04;99553.78;5029557;28;20394;-38
2021/05/08 08:36:08;;;;;;;6.78;4.22;;;;;;;22.27;37.85;99565.88;5028909;28;20033;-39
2021/05/08 08:38:34;;;;;;;10.20;4.55;;;;;;;21.51;38.75;99548.28;5023458;28;20029;-39
2021/05/08 08:40:59;;;;;;;14.07;7.88;;;;;;;22.16;38.15;99550.75;5029722;28;20038;-38
2021/05/08 08:43:25;;;;;;;9.23;4.07;;;;;;;22.18;37.78;99551.28;5029851;28;20021;-39
2021/05/08 08:45:50;;;;;;;5.57;3.80;;;;;;;22.05;37.74;99544.66;5029449;28;20137;-38
2021/05/08 08:48:16;;;;;;;18.33;4.22;;;;;;;21.40;38.54;99542.91;5029656;28;20144;-38
2021/05/08 08:50:42;;;;;;;8.93;4.10;;;;;;;21.44;38.61;99538.59;5028287;28;20021;-38
2021/05/08 08:53:13;;;;;;;6.35;4.07;;;;;;;20.98;38.98;99548.78;5028104;28;20029;-38
2021/05/08 08:55:41;;;;;;;9.80;4.43;;;;;;;20.64;40.28;99544.06;5029741;28;20147;-39
2021/05/08 08:58:07;;;;;;;6.38;4.05;;;;;;;21.17;39.71;99544.41;5027840;28;20052;-37
2021/05/08 09:00:32;;;;;;;9.23;4.40;;;;;;;21.44;38.79;99543.19;5029592;28;20425;-39
2021/05/08 09:02:58;;;;;;;9.70;4.38;;;;;;;21.26;39.11;99545.41;5029697;28;20048;-39
2021/05/08 09:05:25;;;;;;;15.25;4.22;;;;;;;20.91;40.26;99537.50;5029656;28;20480;-38
2021/05/08 09:07:51;;;;;;;16.67;4.63;;;;;;;20.60;39.88;99537.56;5028447;28;20171;-37
2021/05/08 09:10:30;;;;;;;16.13;4.72;;;;;;;20.39;40.51;99532.22;5029760;28;20632;-37
2021/05/08 09:13:00;;;;;;;8.13;4.40;;;;;;;21.07;39.47;99537.13;5033223;28;20046;-38
2021/05/08 09:15:31;;;;;;;9.52;4.90;;;;;;;20.85;39.99;99548.31;5033807;28;20030;-38
2021/05/08 09:17:57;;;;;;;8.75;4.80;;;;;;;20.66;40.14;99539.19;5033370;28;20040;-38
2021/05/08 09:20:23;;;;;;;9.68;4.60;;;;;;;20.33;41.00;99540.56;5031993;28;20033;-38
2021/05/08 09:22:49;;;;;;;10.95;4.63;;;;;;;20.53;40.91;99545.16;5031662;28;20025;-38
2021/05/08 09:25:15;;;;;;;6.00;4.60;;;;;;;21.26;39.54;99552.72;5031432;28;20025;-37
2021/05/08 09:27:53;;;;;;;14.00;5.00;;;;;;;20.77;40.14;99539.94;5032409;28;20025;-37
2021/05/08 09:30:29;;;;;;;10.23;5.07;;;;;;;20.48;40.90;99543.25;5033908;28;20032;-40
2021/05/08 09:32:54;;;;;;;8.90;4.70;;;;;;;20.65;40.68;99538.38;5033166;28;20037;-38
2021/05/08 09:35:30;;;;;;;8.65;4.97;;;;;;;20.56;40.73;99544.59;5032613;28;20029;-39
2021/05/08 09:38:12;;;;;;;10.45;5.32;;;;;;;20.25;40.96;99545.44;5032746;28;20029;-37
2021/05/08 09:40:39;;;;;;;7.82;4.90;;;;;;;20.64;40.14;99549.47;5031942;28;20150;-37
2021/05/08 09:43:17;;;;;;;13.15;4.88;;;;;;;20.53;40.12;99551.34;5032135;28;20533;-38
2021/05/08 09:45:48;;;;;;;11.90;5.07;;;;;;;21.14;39.58;99544.16;5033058;28;20033;-38
2021/05/08 09:48:23;;;;;;;8.25;4.90;;;;;;;20.79;39.82;99554.84;5035484;28;20427;-37
2021/05/08 09:50:49;;;;;;;8.45;4.88;;;;;;;20.74;39.53;99552.13;5020669;28;20051;-39
2021/05/08 09:53:31;;;;;;;11.07;4.63;;;;;;;20.03;40.99;99545.75;5032474;28;20453;-38
2021/05/08 09:55:56;;;;;;;9.82;4.72;;;;;;;19.91;41.32;99562.22;5032789;28;20500;-37
2021/05/08 09:58:23;;;;;;;8.85;4.78;;;;;;;20.54;40.68;99552.97;5036819;28;20021;-38
2021/05/08 10:00:50;;;;;;;10.45;4.90;;;;;;;20.23;41.10;99555.72;5039756;28;20032;-38
2021/05/08 10:03:16;;;;;;;13.23;4.40;;;;;;;19.76;41.60;99546.00;5040297;28;20467;-37
2021/05/08 10:05:42;;;;;;;7.80;4.20;;;;;;;20.05;41.16;99553.59;5047176;28;20143;-38
2021/05/08 10:08:08;;;;;;;11.32;4.53;;;;;;;19.78;41.13;99564.63;5035662;28;20500;-39
2021/05/08 10:10:34;;;;;;;10.95;4.40;;;;;;;19.90;41.07;99555.19;5046535;28;20402;-37
2021/05/08 10:13:05;;;;;;;19.42;4.22;;;;;;;19.39;41.90;99565.88;5040747;28;20500;-38
2021/05/08 10:15:31;;;;;;;11.40;3.95;;;;;;;19.18;42.31;99561.50;5038865;28;20029;-38
2021/05/08 10:17:56;;;;;;;11.95;4.20;;;;;;;19.13;42.37;99567.69;5030675;28;20389;-39
2021/05/08 10:20:22;;;;;;;11.65;3.90;;;;;;;18.97;42.64;99547.94;5014308;28;20507;-37
2021/05/08 10:22:50;;;;;;;6.00;4.55;;;;;;;19.04;42.85;99540.44;5036905;28;20088;-38
2021/05/08 10:25:15;;;;;;;6.82;4.18;;;;;;;19.45;42.00;99537.81;5039897;28;20059;-37
2021/05/08 10:27:41;;;;;;;7.13;4.25;;;;;;;19.50;41.96;99554.03;5031890;28;20037;-38
2021/05/08 10:30:10;;;;;;;4.70;4.20;;;;;;;19.48;42.02;99553.50;5048262;28;20116;-39
2021/05/08 10:32:37;;;;;;;11.07;4.20;;;;;;;19.45;41.75;99572.91;5036201;28;20029;-40
2021/05/08 10:35:03;;;;;;;7.78;3.80;;;;;;;19.30;42.29;99554.78;5039838;28;20044;-39
2021/05/08 10:37:29;;;;;;;8.65;3.70;;;;;;;19.30;42.83;99560.19;5032068;28;20034;-39
2021/05/08 10:39:58;;;;;;;6.00;4.10;;;;;;;19.75;41.61;99549.78;5031766;28;20026;-39
2021/05/08 10:43:02;;;;;;;9.73;4.32;;;;;;;20.36;40.66;99545.44;5031998;28;20080;-39
2021/05/08 10:45:31;;;;;;;6.00;4.03;;;;;;;20.04;41.34;99560.06;5012627;28;20086;-38
2021/05/08 10:48:00;;;;;;;7.60;3.67;;;;;;;20.54;40.06;99541.34;5016568;28;20066;-39
2021/05/08 10:50:37;;;;;;;10.27;3.90;;;;;;;20.84;39.76;99562.09;5020925;28;20037;-39
2021/05/08 10:53:04;;;;;;;9.88;3.78;;;;;;;21.30;38.86;99545.66;5031399;28;20099;-39
2021/05/08 10:55:40;;;;;;;11.30;3.50;;;;;;;21.48;38.46;99553.16;5031325;28;20127;-39
2021/05/08 10:58:24;;;;;;;3.67;3.20;;;;;;;22.30;37.85;99553.66;5031167;28;20103;-39
2021/05/08 11:00:55;;;;;;;7.40;3.28;;;;;;;23.17;35.77;99536.41;5031764;28;20037;-38
2021/05/08 11:03:25;;;;;;;6.43;3.38;;;;;;;23.18;35.62;99546.16;5031429;28;20021;-38
2021/05/08 11:06:02;;;;;;;5.75;3.40;;;;;;;23.23;35.76;99565.91;5031197;28;20346;-39
2021/05/08 11:08:28;;;;;;;7.20;3.30;;;;;;;23.34;35.07;99563.88;5030888;28;20462;-39
2021/05/08 11:10:56;;;;;;;4.55;3.20;;;;;;;22.98;35.37;99571.63;5031290;28;20044;-38
2021/05/08 11:13:24;;;;;;;7.50;3.00;;;;;;;22.43;35.72;99570.06;5030651;28;20140;-39
2021/05/08 11:15:49;;;;;;;5.05;3.20;;;;;;;22.25;36.85;99560.72;5031277;28;20041;-41
2021/05/08 11:18:30;;;;;;;9.57;3.50;;;;;;;22.68;35.80;99570.09;5031139;28;20037;-38
2021/05/08 11:21:08;;;;;;;4.50;3.13;;;;;;;22.14;36.21;99564.63;5031257;28;20064;-40
2021/05/08 11:23:46;;;;;;;8.70;3.13;;;;;;;22.33;36.01;99566.63;5029786;28;20025;-39
2021/05/08 11:26:20;;;;;;;9.32;3.30;;;;;;;22.23;36.23;99567.50;5029969;28;20064;-39